KVIH/VIH METAR and TAF weather

Enter ICAO airport designator
Station Type Date Time Source
KVIH METAR 2020/09/24 06:53 UTC NOAA

KVIH 240653Z AUTO 17005KT 10SM CLR 13/12 A3002 RMK AO2 SLP159 T01280117


Station Type Date Time Source
KVIH Decoded METAR 2020/09/24 06:53 UTC NOAA

ROLLA/VICHY ROLLA NATIONAL, MO, United States (KVIH) 38-08N 91-46W 333M
Sep 24, 2020 - 02:53 AM EDT / 2020.09.24 0653 UTC
Wind: from the S (170 degrees) at 6 MPH (5 KT):0
Visibility: 10 mile(s):0
Sky conditions: clear
Temperature: 55.0 F (12.8 C)
Dew Point: 53.1 F (11.7 C)
Relative Humidity: 93%
Pressure (altimeter): 30.02 in. Hg (1016 hPa)
ob: KVIH 240653Z AUTO 17005KT 10SM CLR 13/12 A3002 RMK AO2 SLP159 T01280117
cycle: 7

Station Type Date Time Source
KVIH TAF UTC NOAA

Error!

Example: see airport list